createdAt,value
2023-06-26T00:01:43.845Z,8.33
2023-06-26T00:04:15.731Z,8.60
2023-06-26T00:06:45.088Z,9.43
2023-06-26T00:09:14.249Z,8.65
2023-06-26T00:11:42.957Z,8.88
2023-06-26T00:14:13.129Z,8.63
2023-06-26T00:16:43.712Z,8.93
2023-06-26T00:19:12.476Z,8.68
2023-06-26T00:21:41.119Z,7.68
2023-06-26T00:27:10.004Z,7.63
2023-06-26T00:29:41.070Z,7.35
2023-06-26T00:32:10.333Z,7.50
2023-06-26T00:34:39.020Z,7.32
2023-06-26T00:37:07.776Z,7.72
2023-06-26T00:39:36.612Z,7.60
2023-06-26T00:42:05.637Z,7.82
2023-06-26T00:44:35.992Z,7.45
2023-06-26T00:47:06.965Z,7.28
2023-06-26T00:49:35.914Z,7.05
2023-06-26T00:52:05.780Z,7.77
2023-06-26T00:54:35.110Z,7.45
2023-06-26T00:57:06.597Z,8.70
2023-06-26T00:59:37.458Z,7.70
2023-06-26T01:02:08.656Z,7.47
2023-06-26T01:04:38.916Z,7.97
2023-06-26T01:07:09.655Z,8.52
2023-06-26T01:09:38.572Z,7.95
2023-06-26T01:12:07.672Z,9.35
2023-06-26T01:14:37.975Z,8.35
2023-06-26T01:17:13.030Z,7.80
2023-06-26T01:19:43.187Z,7.47
2023-06-26T01:22:22.634Z,7.50
2023-06-26T01:25:05.826Z,7.00
2023-06-26T01:27:43.639Z,7.20
2023-06-26T01:30:19.624Z,7.23
2023-06-26T01:32:50.093Z,7.38
2023-06-26T01:35:19.468Z,7.80
2023-06-26T01:37:48.232Z,7.90
2023-06-26T01:40:17.066Z,6.57
2023-06-26T01:42:47.096Z,6.80
2023-06-26T01:45:29.455Z,7.03
2023-06-26T01:48:03.058Z,6.53
2023-06-26T01:50:37.432Z,6.45
2023-06-26T01:53:19.162Z,6.82
2023-06-26T01:55:57.972Z,6.70
2023-06-26T01:58:30.472Z,6.20
2023-06-26T02:00:59.464Z,6.47
2023-06-26T02:03:31.755Z,6.53
2023-06-26T02:06:04.198Z,7.03
2023-06-26T02:08:34.212Z,7.17
2023-06-26T02:11:03.094Z,6.68
2023-06-26T02:13:33.360Z,6.82
2023-06-26T02:16:02.126Z,6.07
2023-06-26T02:18:31.436Z,7.10
2023-06-26T02:21:01.259Z,6.93
2023-06-26T02:23:29.994Z,7.22
2023-06-26T02:25:59.734Z,6.22
2023-06-26T02:28:28.455Z,6.85
2023-06-26T02:30:58.571Z,6.38
2023-06-26T02:33:27.460Z,6.63
2023-06-26T02:36:03.090Z,6.97
2023-06-26T02:38:31.752Z,6.90
2023-06-26T02:41:00.401Z,6.40
2023-06-26T02:43:29.124Z,6.40
2023-06-26T02:45:59.867Z,6.30
2023-06-26T02:48:28.659Z,6.07
2023-06-26T02:50:57.447Z,6.53
2023-06-26T02:53:30.798Z,6.78
2023-06-26T02:55:59.743Z,6.22
2023-06-26T02:58:28.593Z,6.23
2023-06-26T03:00:57.685Z,6.72
2023-06-26T03:03:27.797Z,6.90
2023-06-26T03:05:58.195Z,6.85
2023-06-26T03:08:28.237Z,6.25
2023-06-26T03:10:59.239Z,7.23
2023-06-26T03:13:27.930Z,6.38
2023-06-26T03:15:56.670Z,6.95
2023-06-26T03:18:25.598Z,6.47
2023-06-26T03:20:56.315Z,6.32
2023-06-26T03:23:26.347Z,7.20
2023-06-26T03:25:56.148Z,6.55
2023-06-26T03:28:32.317Z,6.40
2023-06-26T03:31:01.553Z,6.22
2023-06-26T03:33:30.675Z,6.47
2023-06-26T03:36:01.334Z,6.23
2023-06-26T03:38:30.106Z,6.35
2023-06-26T03:41:01.188Z,6.97
2023-06-26T03:43:29.966Z,6.20
2023-06-26T03:46:14.033Z,6.32
2023-06-26T03:48:43.014Z,6.60
2023-06-26T03:51:13.095Z,7.28
2023-06-26T03:53:41.833Z,6.38
2023-06-26T03:56:10.556Z,5.53
2023-06-26T03:58:39.491Z,6.28
2023-06-26T04:01:08.280Z,6.60
2023-06-26T04:03:46.118Z,6.15
2023-06-26T04:06:16.487Z,6.70
2023-06-26T04:08:45.204Z,6.90
2023-06-26T04:11:14.059Z,6.35
2023-06-26T04:13:42.760Z,6.70
2023-06-26T04:16:12.761Z,6.68
2023-06-26T04:18:41.562Z,6.20
2023-06-26T04:21:12.931Z,6.90
2023-06-26T04:23:43.702Z,6.47
2023-06-26T04:26:14.553Z,7.10
2023-06-26T04:28:44.295Z,6.60
2023-06-26T04:31:13.014Z,6.57
2023-06-26T04:33:43.352Z,7.00
2023-06-26T04:36:13.178Z,6.18
2023-06-26T04:38:43.417Z,6.33
2023-06-26T04:41:12.112Z,6.43
2023-06-26T04:43:41.051Z,6.80
2023-06-26T04:46:11.371Z,6.03
2023-06-26T04:48:40.469Z,5.82
2023-06-26T04:51:09.175Z,6.23
2023-06-26T04:53:37.866Z,6.25
2023-06-26T04:56:08.192Z,6.50
2023-06-26T04:58:36.857Z,5.78
2023-06-26T05:01:08.069Z,5.97
2023-06-26T05:03:38.131Z,5.20
2023-06-26T05:06:09.690Z,5.88
2023-06-26T05:08:38.743Z,5.05
2023-06-26T05:11:08.987Z,5.22
2023-06-26T05:13:37.739Z,5.07
2023-06-26T05:16:06.830Z,4.40
2023-06-26T05:18:35.564Z,4.03
2023-06-26T05:21:05.701Z,4.10
2023-06-26T05:23:36.267Z,3.72
2023-06-26T05:26:06.094Z,4.22
2023-06-26T05:28:37.512Z,3.70
2023-06-26T05:31:07.419Z,3.55
2023-06-26T05:33:39.320Z,3.67
2023-06-26T05:36:13.535Z,4.50
2023-06-26T05:38:43.017Z,4.45
2023-06-26T05:41:12.575Z,4.47
2023-06-26T05:43:42.771Z,5.30
2023-06-26T05:46:11.517Z,4.93
2023-06-26T05:48:40.639Z,4.43
2023-06-26T05:51:10.927Z,4.15
2023-06-26T05:53:40.430Z,4.30
2023-06-26T05:56:11.217Z,4.22
2023-06-26T05:58:40.712Z,4.55
2023-06-26T06:01:10.842Z,4.50
2023-06-26T06:03:39.909Z,5.45
2023-06-26T06:06:08.889Z,4.90
2023-06-26T06:08:37.681Z,4.53
2023-06-26T06:11:06.476Z,5.22
2023-06-26T06:13:35.172Z,4.50
2023-06-26T06:16:03.957Z,4.32
2023-06-26T06:18:34.174Z,4.20
2023-06-26T06:21:03.035Z,4.25
2023-06-26T06:23:31.700Z,4.70
2023-06-26T06:26:00.342Z,4.95
2023-06-26T06:28:29.067Z,4.57
2023-06-26T06:30:57.995Z,4.70
2023-06-26T06:33:26.798Z,4.32
2023-06-26T06:35:56.961Z,4.35
2023-06-26T06:38:25.753Z,4.05
2023-06-26T06:40:54.531Z,4.30
2023-06-26T06:43:23.236Z,4.43
2023-06-26T06:45:51.986Z,4.20
2023-06-26T06:48:20.907Z,4.18
2023-06-26T06:50:49.870Z,4.00
2023-06-26T06:53:21.601Z,3.90
2023-06-26T06:55:50.430Z,4.40
2023-06-26T06:58:20.314Z,4.47
2023-06-26T07:00:49.170Z,3.63
2023-06-26T07:03:18.254Z,3.75
2023-06-26T07:05:47.678Z,4.00
2023-06-26T07:08:17.142Z,3.90
2023-06-26T07:10:47.239Z,4.07
2023-06-26T07:13:16.342Z,3.80
2023-06-26T07:15:45.268Z,4.28
2023-06-26T07:18:13.981Z,3.78
2023-06-26T07:20:42.928Z,3.47
2023-06-26T07:23:12.140Z,3.75
2023-06-26T07:25:40.862Z,4.30
2023-06-26T07:28:14.924Z,4.63
2023-06-26T07:30:43.657Z,3.90
2023-06-26T07:33:12.613Z,3.90
2023-06-26T07:35:41.379Z,3.70
2023-06-26T07:38:10.110Z,3.15
2023-06-26T07:40:39.215Z,3.67
2023-06-26T07:43:08.096Z,4.00
2023-06-26T07:45:38.725Z,4.00
2023-06-26T07:48:10.380Z,4.18
2023-06-26T07:50:39.362Z,3.30
2023-06-26T07:53:08.331Z,3.40
2023-06-26T07:55:37.395Z,3.35
2023-06-26T07:58:06.488Z,3.67
2023-06-26T08:00:35.511Z,3.33
2023-06-26T08:03:09.017Z,3.70
2023-06-26T08:05:41.572Z,3.60
2023-06-26T08:08:10.482Z,3.80
2023-06-26T08:10:39.749Z,3.30
2023-06-26T08:13:10.020Z,3.40
2023-06-26T08:15:38.808Z,3.42
2023-06-26T08:18:09.035Z,3.05
2023-06-26T08:20:38.621Z,3.40
2023-06-26T08:23:08.921Z,3.10
2023-06-26T08:25:37.668Z,3.00
2023-06-26T08:28:09.562Z,3.10
2023-06-26T08:30:38.719Z,3.63
2023-06-26T08:33:13.307Z,3.08
2023-06-26T08:35:42.102Z,3.10
2023-06-26T08:38:11.175Z,4.00
2023-06-26T08:40:40.150Z,3.22
2023-06-26T08:43:09.265Z,3.58
2023-06-26T08:45:38.238Z,3.50
2023-06-26T08:48:11.795Z,3.50
2023-06-26T08:50:42.483Z,2.97
2023-06-26T08:53:21.952Z,3.40
2023-06-26T08:55:55.107Z,3.40
2023-06-26T08:58:23.879Z,3.30
2023-06-26T09:00:53.100Z,3.30
2023-06-26T09:03:23.695Z,3.40
2023-06-26T09:05:52.445Z,3.33
2023-06-26T09:08:21.526Z,3.28
2023-06-26T09:10:50.593Z,3.35
2023-06-26T09:13:29.405Z,3.00
2023-06-26T09:16:00.675Z,3.63
2023-06-26T09:18:35.110Z,3.03
2023-06-26T09:21:09.659Z,3.70
2023-06-26T09:23:39.298Z,3.50
2023-06-26T09:26:09.242Z,3.40
2023-06-26T09:28:38.603Z,3.60
2023-06-26T09:31:09.552Z,3.65
2023-06-26T09:33:42.813Z,4.13
2023-06-26T09:36:23.013Z,4.07
2023-06-26T09:38:52.507Z,3.40
2023-06-26T09:41:21.480Z,3.60
2023-06-26T09:43:51.470Z,4.00
2023-06-26T09:46:29.678Z,4.15
2023-06-26T09:49:06.575Z,3.78
2023-06-26T09:51:36.686Z,3.47
2023-06-26T09:54:07.632Z,4.03
2023-06-26T09:56:37.016Z,4.20
2023-06-26T09:59:08.340Z,3.67
2023-06-26T10:01:43.885Z,3.90
2023-06-26T10:04:15.576Z,3.47
2023-06-26T10:06:49.693Z,4.28
2023-06-26T10:09:28.293Z,3.78
2023-06-26T10:12:01.701Z,3.47
2023-06-26T10:14:36.422Z,3.70
2023-06-26T10:17:15.027Z,3.30
2023-06-26T10:19:47.866Z,3.35
2023-06-26T10:22:19.890Z,3.45
2023-06-26T10:24:52.992Z,3.63
2023-06-26T10:27:24.070Z,4.22
2023-06-26T10:29:56.929Z,3.37
2023-06-26T10:32:29.029Z,3.60
2023-06-26T10:34:59.974Z,3.45
2023-06-26T10:37:45.304Z,3.00
2023-06-26T10:40:15.399Z,3.65
2023-06-26T10:42:44.212Z,3.30
2023-06-26T10:45:16.760Z,3.70
2023-06-26T10:47:49.508Z,3.22
2023-06-26T10:50:26.475Z,3.33
2023-06-26T10:53:16.994Z,3.05
2023-06-26T10:55:50.712Z,3.37
2023-06-26T10:58:44.338Z,3.47
2023-06-26T11:01:26.508Z,3.35
2023-06-26T11:04:08.297Z,3.53
2023-06-26T11:06:41.165Z,3.40
2023-06-26T11:09:16.032Z,3.73
2023-06-26T11:12:05.861Z,3.47
2023-06-26T11:14:35.577Z,3.78
2023-06-26T11:17:08.328Z,3.35
2023-06-26T11:19:37.976Z,3.80
2023-06-26T11:22:08.644Z,3.97
2023-06-26T11:24:38.445Z,3.92
2023-06-26T11:27:07.649Z,3.90
2023-06-26T11:29:36.421Z,3.40
2023-06-26T11:32:08.616Z,3.90
2023-06-26T11:34:39.298Z,3.57
2023-06-26T11:37:14.077Z,3.83
2023-06-26T11:39:42.787Z,4.13
2023-06-26T11:42:18.764Z,3.90
2023-06-26T11:44:49.744Z,4.72
2023-06-26T11:47:19.932Z,4.27
2023-06-26T11:49:52.076Z,4.78
2023-06-26T11:52:25.236Z,4.80
2023-06-26T11:54:54.055Z,4.00
2023-06-26T11:57:23.304Z,4.32
2023-06-26T11:59:56.735Z,5.13
2023-06-26T12:02:26.180Z,3.70
2023-06-26T12:04:55.312Z,5.32
2023-06-26T12:07:26.077Z,5.80
2023-06-26T12:09:56.409Z,4.65
2023-06-26T12:12:25.899Z,4.57
2023-06-26T12:14:58.489Z,4.50
2023-06-26T12:17:27.577Z,4.50
2023-06-26T12:19:56.380Z,5.43
2023-06-26T12:22:26.864Z,4.53
2023-06-26T12:24:59.878Z,5.23
2023-06-26T12:27:29.254Z,5.22
2023-06-26T12:29:57.963Z,5.00
2023-06-26T12:32:28.071Z,5.00
2023-06-26T12:35:00.161Z,5.43
2023-06-26T12:37:30.637Z,5.57
2023-06-26T12:40:00.713Z,5.25
2023-06-26T12:42:35.206Z,5.00
2023-06-26T12:45:31.188Z,4.32
2023-06-26T12:48:10.921Z,3.80
2023-06-26T12:50:46.901Z,2.93
2023-06-26T12:53:19.930Z,3.00
2023-06-26T12:55:48.884Z,3.42
2023-06-26T12:58:18.649Z,3.13
2023-06-26T13:00:47.495Z,3.65
2023-06-26T13:03:16.232Z,2.70
2023-06-26T13:05:45.073Z,3.08
2023-06-26T13:08:14.013Z,3.70
2023-06-26T13:10:44.338Z,2.92
2023-06-26T13:13:14.698Z,4.00
2023-06-26T13:15:43.553Z,4.27
2023-06-26T13:18:12.373Z,5.05
2023-06-26T13:20:41.509Z,4.90
2023-06-26T13:23:10.810Z,4.93
2023-06-26T13:25:57.563Z,5.60
2023-06-26T13:28:29.778Z,6.13
2023-06-26T13:31:07.549Z,6.35
2023-06-26T13:33:36.553Z,7.30
2023-06-26T13:36:07.318Z,6.90
2023-06-26T13:38:41.903Z,6.82
2023-06-26T13:41:25.180Z,10.30
2023-06-26T13:43:56.222Z,9.45
2023-06-26T13:46:29.433Z,9.13
2023-06-26T13:48:58.254Z,8.50
2023-06-26T13:51:27.027Z,8.45
2023-06-26T13:54:04.867Z,9.80
2023-06-26T13:56:36.250Z,5.43
2023-06-26T13:59:05.877Z,5.97
2023-06-26T14:01:34.735Z,6.05
2023-06-26T14:04:03.567Z,6.95
2023-06-26T14:06:37.578Z,7.27
2023-06-26T14:09:08.220Z,7.03
2023-06-26T14:11:46.081Z,6.32
2023-06-26T14:14:16.505Z,5.93
2023-06-26T14:16:46.433Z,5.90
2023-06-26T14:19:16.274Z,9.73
2023-06-26T14:21:45.153Z,17.50
2023-06-26T14:24:14.616Z,17.75
2023-06-26T14:26:44.950Z,16.83
2023-06-26T14:29:14.163Z,17.17
2023-06-26T14:31:42.841Z,17.20
2023-06-26T14:34:11.735Z,14.63
2023-06-26T14:36:40.497Z,13.98
2023-06-26T14:39:09.215Z,13.98
2023-06-26T14:41:38.499Z,12.93
2023-06-26T14:44:10.944Z,11.27
2023-06-26T14:46:40.269Z,10.38
2023-06-26T14:49:08.971Z,10.68
2023-06-26T14:51:39.497Z,11.27
2023-06-26T14:54:08.424Z,12.63
2023-06-26T14:56:37.067Z,12.40
2023-06-26T14:59:05.844Z,13.45
2023-06-26T15:01:36.008Z,13.45
2023-06-26T15:04:05.239Z,12.68
2023-06-26T15:06:34.048Z,13.60
2023-06-26T15:09:03.368Z,13.27
2023-06-26T15:11:32.223Z,11.77
2023-06-26T15:14:01.143Z,10.90
2023-06-26T15:16:30.063Z,11.13
2023-06-26T15:19:00.232Z,10.75
2023-06-26T15:21:29.325Z,9.80
2023-06-26T15:23:58.876Z,8.73
2023-06-26T15:26:27.554Z,9.43
2023-06-26T15:28:56.851Z,8.95
2023-06-26T15:31:31.469Z,8.35
2023-06-26T15:34:02.433Z,7.70
2023-06-26T15:36:31.524Z,8.38
2023-06-26T15:39:00.331Z,8.57
2023-06-26T15:41:29.409Z,8.38
2023-06-26T15:43:58.537Z,8.13
2023-06-26T15:46:27.966Z,6.70
2023-06-26T15:48:56.921Z,7.10
2023-06-26T15:51:27.136Z,7.38
2023-06-26T15:53:55.984Z,6.68
2023-06-26T15:56:25.046Z,6.68
2023-06-26T15:58:53.806Z,5.87
2023-06-26T16:01:22.811Z,5.43
2023-06-26T16:03:51.612Z,4.93
2023-06-26T16:06:20.657Z,4.43
2023-06-26T16:08:53.518Z,4.70
2023-06-26T16:11:28.801Z,4.23
2023-06-26T16:14:01.187Z,4.45
2023-06-26T16:16:30.055Z,4.38
2023-06-26T16:18:59.559Z,4.45
2023-06-26T16:21:29.327Z,4.85
2023-06-26T16:24:00.442Z,4.80
2023-06-26T16:26:29.234Z,4.95
2023-06-26T16:28:59.130Z,4.88
2023-06-26T16:31:28.771Z,4.85
2023-06-26T16:33:59.686Z,5.53
2023-06-26T16:36:29.079Z,5.13
2023-06-26T16:39:02.302Z,5.40
2023-06-26T16:41:56.278Z,4.20
2023-06-26T16:44:28.264Z,4.55
2023-06-26T16:47:03.029Z,5.05
2023-06-26T16:49:32.114Z,4.93
2023-06-26T16:52:04.885Z,5.05
2023-06-26T16:54:35.206Z,5.70
2023-06-26T16:57:06.426Z,6.50
2023-06-26T16:59:35.360Z,6.20
2023-06-26T17:02:04.368Z,6.17
2023-06-26T17:04:33.492Z,6.40
2023-06-26T17:07:02.371Z,6.55
2023-06-26T17:09:34.158Z,6.22
2023-06-26T17:12:04.478Z,6.50
2023-06-26T17:14:33.235Z,6.30
2023-06-26T17:17:02.175Z,6.30
2023-06-26T17:19:32.784Z,5.97
2023-06-26T17:22:04.432Z,6.30
2023-06-26T17:24:34.223Z,5.78
2023-06-26T17:27:15.849Z,6.00
2023-06-26T17:29:46.034Z,5.55
2023-06-26T17:32:21.458Z,5.90
2023-06-26T17:34:50.933Z,5.82
2023-06-26T17:37:20.168Z,6.70
2023-06-26T17:39:50.201Z,5.77
2023-06-26T17:42:27.594Z,5.47
2023-06-26T17:45:01.497Z,5.45
2023-06-26T17:47:32.814Z,6.15
2023-06-26T17:50:01.741Z,6.10
2023-06-26T17:52:34.128Z,5.67
2023-06-26T17:55:04.953Z,5.20
2023-06-26T17:57:35.643Z,5.07
2023-06-26T18:00:05.823Z,5.15
2023-06-26T18:02:43.828Z,5.47
2023-06-26T18:05:15.788Z,5.77
2023-06-26T18:07:58.116Z,5.40
2023-06-26T18:10:31.674Z,5.43
2023-06-26T18:13:04.435Z,5.70
2023-06-26T18:15:33.343Z,6.05
2023-06-26T18:18:02.085Z,5.70
2023-06-26T18:20:30.895Z,6.50
2023-06-26T18:22:59.947Z,5.72
2023-06-26T18:25:28.987Z,5.57
2023-06-26T18:27:57.728Z,6.47
2023-06-26T18:30:27.901Z,5.63
2023-06-26T18:32:57.002Z,5.38
2023-06-26T18:35:26.046Z,5.32
2023-06-26T18:37:54.950Z,5.07
2023-06-26T18:40:26.104Z,5.53
2023-06-26T18:42:54.992Z,5.47
2023-06-26T18:45:24.489Z,5.57
2023-06-26T18:47:54.799Z,5.90
2023-06-26T18:50:28.393Z,6.22
2023-06-26T18:53:08.748Z,5.72
2023-06-26T18:55:38.752Z,5.47
2023-06-26T18:58:07.943Z,6.18
2023-06-26T19:00:36.721Z,5.60
2023-06-26T19:03:06.949Z,5.68
2023-06-26T19:05:35.736Z,5.72
2023-06-26T19:08:04.930Z,5.40
2023-06-26T19:10:36.139Z,5.88
2023-06-26T19:13:05.540Z,6.30
2023-06-26T19:15:34.829Z,6.25
2023-06-26T19:18:03.654Z,6.32
2023-06-26T19:20:33.928Z,6.07
2023-06-26T19:23:02.830Z,5.82
2023-06-26T19:25:31.544Z,5.80
2023-06-26T19:28:00.445Z,5.38
2023-06-26T19:30:30.235Z,5.88
2023-06-26T19:32:59.964Z,6.37
2023-06-26T19:35:29.873Z,6.43
2023-06-26T19:38:04.933Z,6.38
2023-06-26T19:40:36.228Z,5.53
2023-06-26T19:43:08.819Z,6.05
2023-06-26T19:45:37.965Z,6.30
2023-06-26T19:48:07.783Z,5.50
2023-06-26T19:50:36.589Z,6.18
2023-06-26T19:53:07.793Z,6.72
2023-06-26T19:55:36.754Z,6.43
2023-06-26T19:58:05.420Z,6.30
2023-06-26T20:00:35.567Z,6.72
2023-06-26T20:03:05.239Z,6.53
2023-06-26T20:05:34.232Z,6.90
2023-06-26T20:08:03.285Z,6.72
2023-06-26T20:10:34.021Z,7.03
2023-06-26T20:13:03.545Z,6.78
2023-06-26T20:15:32.257Z,6.55
2023-06-26T20:18:01.337Z,7.18
2023-06-26T20:20:31.478Z,7.03
2023-06-26T20:23:02.582Z,7.10
2023-06-26T20:25:31.664Z,7.25
2023-06-26T20:28:01.809Z,7.85
2023-06-26T20:30:30.554Z,7.35
2023-06-26T20:32:59.402Z,11.10
2023-06-26T20:35:29.284Z,10.27
2023-06-26T20:37:58.300Z,7.45
2023-06-26T20:40:27.861Z,7.78
2023-06-26T20:42:57.392Z,14.82
2023-06-26T20:45:29.120Z,7.93
2023-06-26T20:47:58.801Z,7.53
2023-06-26T20:50:58.601Z,10.05
2023-06-26T20:53:29.846Z,9.32
2023-06-26T20:55:59.526Z,7.18
2023-06-26T20:58:28.586Z,6.88
2023-06-26T21:00:58.680Z,6.90
2023-06-26T21:03:27.693Z,7.15
2023-06-26T21:05:56.539Z,7.28
2023-06-26T21:08:25.292Z,7.75
2023-06-26T21:10:54.138Z,7.63
2023-06-26T21:13:22.924Z,5.90
2023-06-26T21:15:51.650Z,6.85
2023-06-26T21:18:21.704Z,7.97
2023-06-26T21:20:50.459Z,7.28
2023-06-26T21:23:19.334Z,7.90
2023-06-26T21:25:48.119Z,5.87
2023-06-26T21:28:16.948Z,4.40
2023-06-26T21:30:45.869Z,6.35
2023-06-26T21:33:16.797Z,5.97
2023-06-26T21:35:48.608Z,8.25
2023-06-26T21:38:17.746Z,5.30
2023-06-26T21:40:46.399Z,5.55
2023-06-26T21:43:15.154Z,5.65
2023-06-26T21:45:43.928Z,5.60
2023-06-26T21:48:13.740Z,5.93
2023-06-26T21:50:42.463Z,6.97
2023-06-26T21:53:12.614Z,7.43
2023-06-26T21:55:41.941Z,7.00
2023-06-26T21:58:11.090Z,6.25
2023-06-26T22:00:39.769Z,5.78
2023-06-26T22:03:11.190Z,4.80
2023-06-26T22:05:42.822Z,5.93
2023-06-26T22:08:18.112Z,6.05
2023-06-26T22:10:46.991Z,7.13
2023-06-26T22:13:15.748Z,6.95
2023-06-26T22:15:44.634Z,6.53
2023-06-26T22:18:14.484Z,5.82
2023-06-26T22:20:44.409Z,6.13
2023-06-26T22:23:13.237Z,6.10
2023-06-26T22:25:43.432Z,7.45
2023-06-26T22:28:12.149Z,6.20
2023-06-26T22:30:40.893Z,6.57
2023-06-26T22:33:11.659Z,6.40
2023-06-26T22:35:41.949Z,6.63
2023-06-26T22:38:12.022Z,6.07
2023-06-26T22:40:43.722Z,7.20
2023-06-26T22:43:12.406Z,5.90
2023-06-26T22:45:41.622Z,6.25
2023-06-26T22:48:12.953Z,5.82
2023-06-26T22:50:42.716Z,5.00
2023-06-26T22:53:11.415Z,5.33
2023-06-26T22:55:40.877Z,5.78
2023-06-26T22:58:12.739Z,5.97
2023-06-26T23:00:41.885Z,5.90
2023-06-26T23:03:11.219Z,6.07
2023-06-26T23:05:40.214Z,5.40
2023-06-26T23:08:09.314Z,5.07
2023-06-26T23:10:38.476Z,5.90
2023-06-26T23:13:07.328Z,5.25
2023-06-26T23:15:40.666Z,6.25
2023-06-26T23:18:09.917Z,5.33
2023-06-26T23:20:38.690Z,6.03
2023-06-26T23:23:07.412Z,5.60
2023-06-26T23:25:36.117Z,5.60
2023-06-26T23:28:05.998Z,5.75
2023-06-26T23:30:35.951Z,5.80
2023-06-26T23:33:07.106Z,6.18
2023-06-26T23:35:44.095Z,5.95
2023-06-26T23:38:13.479Z,6.05
2023-06-26T23:40:42.237Z,6.45
2023-06-26T23:43:13.061Z,6.03
2023-06-26T23:45:46.290Z,5.90
2023-06-26T23:48:16.486Z,6.25
2023-06-26T23:50:45.270Z,5.75
2023-06-26T23:53:14.495Z,5.72
2023-06-26T23:55:43.185Z,6.07
2023-06-26T23:58:14.050Z,6.32
